Time;durP1;ratioP1;P1;durP2;ratioP2;P2;SDS_P1;SDS_P2;PMS_P1;PMS_P2;Temp;Humidity;BMP_temperature;BMP_pressure;BME280_temperature;BME280_humidity;BME280_pressure;Samples;Min_cycle;Max_cycle;Signal;HPM_P1;HPM_P2
2021/10/02 00:46:14;;;;;;;5.83;3.40;;;13.20;99.90;;;;;;5048954;28;20343;-84
2021/10/02 00:48:39;;;;;;;5.60;3.70;;;13.20;99.90;;;;;;5053032;28;20224;-85
2021/10/02 00:51:05;;;;;;;7.60;3.93;;;13.30;99.90;;;;;;5067923;28;20174;-84
2021/10/02 00:53:31;;;;;;;6.17;3.53;;;13.20;99.90;;;;;;5071176;28;20186;-84
2021/10/02 00:55:57;;;;;;;6.00;3.63;;;13.20;99.90;;;;;;5068962;28;20200;-84
2021/10/02 00:58:22;;;;;;;6.20;4.10;;;13.20;99.90;;;;;;5065378;28;20177;-84
2021/10/02 01:00:48;;;;;;;5.20;3.70;;;13.10;99.90;;;;;;5049505;28;20292;-84
2021/10/02 01:03:53;;;;;;;5.57;4.03;;;13.10;99.90;;;;;;5065632;28;20656;-84
2021/10/02 01:06:48;;;;;;;5.03;3.80;;;13.10;99.90;;;;;;5060419;28;20225;-84
2021/10/02 01:09:16;;;;;;;4.70;4.20;;;13.10;99.90;;;;;;5066086;28;20308;-83
2021/10/02 01:12:02;;;;;;;7.00;5.03;;;13.00;99.90;;;;;;5082388;28;20205;-84
2021/10/02 01:14:46;;;;;;;7.63;4.70;;;13.10;99.90;;;;;;5083586;28;20181;-82
2021/10/02 01:17:18;;;;;;;5.87;4.87;;;13.00;99.90;;;;;;5064045;28;20789;-84
2021/10/02 01:20:08;;;;;;;6.97;4.90;;;13.00;99.90;;;;;;5065272;28;20185;-84
2021/10/02 01:23:08;;;;;;;8.03;5.30;;;13.00;99.90;;;;;;5066373;28;20595;-83
2021/10/02 01:25:57;;;;;;;6.93;5.67;;;13.00;99.90;;;;;;5053059;28;20219;-84
2021/10/02 01:28:22;;;;;;;6.43;5.83;;;13.00;99.90;;;;;;5081886;28;20174;-84
2021/10/02 01:31:03;;;;;;;9.50;6.53;;;13.00;99.90;;;;;;5067053;28;20177;-83
2021/10/02 01:33:42;;;;;;;8.83;6.50;;;13.00;99.90;;;;;;5071015;28;20276;-83
2021/10/02 01:47:14;;;;;;;7.33;6.57;;;12.90;99.90;;;;;;5075116;28;20204;-84
2021/10/02 01:50:00;;;;;;;8.47;6.17;;;12.80;99.90;;;;;;5090090;28;20174;-84
2021/10/02 01:52:29;;;;;;;6.93;6.23;;;12.80;99.90;;;;;;5090769;28;20169;-84
2021/10/02 01:54:55;;;;;;;7.60;6.50;;;12.80;99.90;;;;;;5073016;28;20197;-85
2021/10/02 01:57:23;;;;;;;9.73;7.07;;;12.80;99.90;;;;;;5069691;28;20198;-82
2021/10/02 01:59:48;;;;;;;7.30;6.50;;;12.80;99.90;;;;;;5068996;28;20177;-83
2021/10/02 02:02:14;;;;;;;6.87;6.17;;;12.80;99.90;;;;;;5068613;28;20209;-84
2021/10/02 02:04:40;;;;;;;7.57;6.73;;;12.80;99.90;;;;;;5068413;28;20209;-83
2021/10/02 02:07:05;;;;;;;7.77;6.93;;;12.80;99.90;;;;;;5069860;28;20199;-84
2021/10/02 02:09:37;;;;;;;8.30;6.60;;;12.80;99.90;;;;;;5070617;28;20177;-84
2021/10/02 02:12:05;;;;;;;7.03;6.17;;;12.80;99.90;;;;;;5070602;28;20177;-83
2021/10/02 02:14:30;;;;;;;8.73;6.83;;;12.80;99.90;;;;;;5070124;28;20177;-83
2021/10/02 02:16:56;;;;;;;7.73;7.03;;;12.80;99.90;;;;;;5071140;28;20248;-83
2021/10/02 02:19:21;;;;;;;7.90;7.00;;;12.80;99.90;;;;;;5072074;28;20215;-83
2021/10/02 02:21:47;;;;;;;8.47;7.43;;;12.80;99.90;;;;;;5070509;28;20296;-83
2021/10/02 02:24:12;;;;;;;8.40;7.07;;;12.80;99.90;;;;;;5053167;28;20178;-84
2021/10/02 02:26:38;;;;;;;8.27;6.90;;;12.80;99.90;;;;;;5070223;28;20221;-83
2021/10/02 02:29:05;;;;;;;9.43;7.13;;;12.70;99.90;;;;;;5052058;28;20184;-84
2021/10/02 02:31:31;;;;;;;8.20;7.13;;;12.80;99.90;;;;;;5068570;28;20173;-83
2021/10/02 02:33:56;;;;;;;8.83;7.13;;;12.80;99.90;;;;;;5068988;28;20181;-83
2021/10/02 02:36:22;;;;;;;8.70;7.17;;;12.80;99.90;;;;;;5050027;28;20540;-84
2021/10/02 02:38:48;;;;;;;9.03;8.07;;;12.80;99.90;;;;;;5067072;28;20186;-84
2021/10/02 02:41:13;;;;;;;9.70;8.27;;;12.80;99.90;;;;;;5053622;28;20205;-84
2021/10/02 02:43:39;;;;;;;9.13;8.13;;;12.80;99.90;;;;;;5052932;28;20181;-83
2021/10/02 02:46:17;;;;;;;10.60;7.13;;;12.80;99.90;;;;;;5068580;28;20201;-83
2021/10/02 02:48:49;;;;;;;10.50;7.97;;;12.80;99.90;;;;;;5067177;28;20184;-84
2021/10/02 02:51:18;;;;;;;8.53;7.73;;;12.90;99.90;;;;;;5082137;28;20184;-84
2021/10/02 02:53:56;;;;;;;10.30;8.67;;;12.80;99.90;;;;;;5066646;28;20184;-84
2021/10/02 02:56:45;;;;;;;9.27;8.10;;;12.90;99.90;;;;;;5065494;28;20287;-84
2021/10/02 02:59:27;;;;;;;10.20;8.00;;;12.80;99.90;;;;;;5064718;28;20181;-82
2021/10/02 03:01:53;;;;;;;9.47;8.37;;;12.80;99.90;;;;;;5066167;28;20273;-82
2021/10/02 03:04:18;;;;;;;8.97;7.70;;;12.80;99.90;;;;;;5050842;28;20209;-84
2021/10/02 03:06:50;;;;;;;10.23;8.23;;;12.90;99.90;;;;;;5066155;28;20186;-83
2021/10/02 03:09:15;;;;;;;10.30;7.93;;;12.80;99.90;;;;;;5060714;28;20189;-82
2021/10/02 03:11:43;;;;;;;11.73;8.57;;;12.80;99.90;;;;;;5060620;28;20173;-83
2021/10/02 03:14:09;;;;;;;8.80;7.90;;;12.80;99.90;;;;;;5060162;28;20185;-83
2021/10/02 03:16:34;;;;;;;9.23;8.23;;;12.80;99.90;;;;;;5060790;28;20685;-83
2021/10/02 03:19:01;;;;;;;9.37;8.23;;;12.90;99.90;;;;;;5062733;28;20181;-83
2021/10/02 03:21:27;;;;;;;10.47;7.97;;;12.80;99.90;;;;;;5044303;28;20595;-82
2021/10/02 03:23:52;;;;;;;9.43;8.33;;;12.80;99.90;;;;;;5061123;28;20182;-83
2021/10/02 03:26:18;;;;;;;10.27;8.67;;;12.80;99.90;;;;;;5060753;28;20197;-82
2021/10/02 03:28:44;;;;;;;9.73;8.73;;;12.80;99.90;;;;;;5059874;28;20219;-83
2021/10/02 03:31:10;;;;;;;10.17;7.93;;;12.80;99.90;;;;;;5061057;28;20256;-82
2021/10/02 03:33:36;;;;;;;9.80;8.60;;;12.80;99.90;;;;;;5060302;28;20205;-84
2021/10/02 03:36:01;;;;;;;9.73;8.73;;;12.80;99.90;;;;;;5060214;28;20201;-82
2021/10/02 03:38:27;;;;;;;11.53;9.50;;;12.90;99.90;;;;;;5060011;28;20204;-84
2021/10/02 03:40:58;;;;;;;10.67;9.13;;;12.90;99.90;;;;;;5060511;28;20178;-84
2021/10/02 03:43:25;;;;;;;11.43;10.27;;;12.90;99.90;;;;;;5061074;28;20261;-84
2021/10/02 03:45:51;;;;;;;11.13;9.33;;;12.90;99.90;;;;;;5043621;28;20197;-83
2021/10/02 03:48:16;;;;;;;11.27;10.07;;;12.90;99.90;;;;;;5059683;28;20196;-83
2021/10/02 03:50:42;;;;;;;11.77;10.63;;;12.90;99.90;;;;;;5059831;28;20178;-83
2021/10/02 03:53:07;;;;;;;11.73;10.43;;;13.00;99.90;;;;;;5043107;28;20238;-82
2021/10/02 03:55:33;;;;;;;12.13;10.93;;;13.00;99.90;;;;;;5042942;28;20275;-82
2021/10/02 03:57:59;;;;;;;12.10;10.90;;;13.00;99.90;;;;;;5059410;28;20173;-83
2021/10/02 04:00:24;;;;;;;13.93;12.23;;;13.00;99.90;;;;;;5043108;28;20181;-83
2021/10/02 04:02:50;;;;;;;13.10;11.40;;;13.00;99.90;;;;;;5042520;28;20708;-82
2021/10/02 04:05:15;;;;;;;12.70;11.47;;;13.00;99.90;;;;;;5042880;28;20215;-82
2021/10/02 04:07:41;;;;;;;12.93;11.60;;;13.00;99.90;;;;;;5059534;28;20174;-84
2021/10/02 04:10:07;;;;;;;13.63;12.33;;;13.00;99.90;;;;;;5042120;28;20270;-83
2021/10/02 04:12:32;;;;;;;12.77;11.57;;;13.00;99.90;;;;;;5041621;28;20601;-83
2021/10/02 04:14:58;;;;;;;12.93;11.50;;;13.00;99.90;;;;;;5042134;28;20197;-84
2021/10/02 04:17:24;;;;;;;13.10;11.77;;;13.00;99.90;;;;;;5058450;28;20174;-84
2021/10/02 04:19:49;;;;;;;12.30;11.10;;;13.00;99.90;;;;;;5056595;28;20235;-84
2021/10/02 04:22:15;;;;;;;13.20;10.40;;;13.00;99.90;;;;;;5056839;28;20254;-84
2021/10/02 04:24:41;;;;;;;10.73;9.73;;;13.00;99.90;;;;;;5040110;28;20285;-84
2021/10/02 04:27:07;;;;;;;11.10;10.00;;;13.00;99.90;;;;;;5057096;28;20170;-83
2021/10/02 04:29:33;;;;;;;11.03;9.93;;;13.00;99.90;;;;;;5040113;28;20177;-83
2021/10/02 04:31:58;;;;;;;11.03;9.93;;;13.00;99.90;;;;;;5056196;28;20710;-84
2021/10/02 04:34:24;;;;;;;10.63;9.43;;;12.90;99.90;;;;;;5056345;28;20641;-83
2021/10/02 04:36:49;;;;;;;10.33;9.20;;;12.90;99.90;;;;;;5056595;28;20698;-83
2021/10/02 04:39:15;;;;;;;9.57;8.67;;;12.70;99.90;;;;;;5056742;28;20713;-82
2021/10/02 04:41:40;;;;;;;9.77;8.70;;;12.80;99.90;;;;;;5056688;28;20204;-84
2021/10/02 04:44:06;;;;;;;10.27;9.20;;;12.80;99.90;;;;;;5040352;28;20209;-83
2021/10/02 04:46:32;;;;;;;9.03;8.23;;;12.80;99.90;;;;;;5041032;28;20193;-82
2021/10/02 04:49:00;;;;;;;9.20;8.10;;;12.70;99.90;;;;;;5057044;28;20174;-84
2021/10/02 04:51:26;;;;;;;8.83;7.93;;;12.70;99.90;;;;;;5056957;28;20231;-82
2021/10/02 04:53:51;;;;;;;8.20;7.40;;;12.70;99.90;;;;;;5056945;28;20173;-83
2021/10/02 04:56:19;;;;;;;8.50;7.70;;;12.60;99.90;;;;;;5056878;28;20635;-84
2021/10/02 04:58:45;;;;;;;8.53;7.73;;;12.60;99.90;;;;;;5059172;28;20541;-83
2021/10/02 05:01:11;;;;;;;8.40;7.60;;;12.50;99.90;;;;;;5040572;28;20178;-84
2021/10/02 05:03:36;;;;;;;9.40;8.53;;;12.50;99.90;;;;;;5040564;28;20177;-84
2021/10/02 05:06:03;;;;;;;9.43;8.53;;;12.50;99.90;;;;;;5057594;28;20262;-83
2021/10/02 05:08:30;;;;;;;9.63;8.73;;;12.60;99.90;;;;;;5056908;28;20252;-83
2021/10/02 05:10:55;;;;;;;9.17;8.27;;;12.60;99.90;;;;;;5057044;28;20177;-84
2021/10/02 05:13:21;;;;;;;9.73;8.60;;;12.60;99.90;;;;;;5056690;28;20222;-84
2021/10/02 05:15:46;;;;;;;9.37;8.47;;;12.60;99.90;;;;;;5058161;28;20292;-82
2021/10/02 05:18:12;;;;;;;8.80;8.00;;;12.70;99.90;;;;;;5056657;28;20185;-83
2021/10/02 05:20:37;;;;;;;10.20;8.60;;;12.70;99.90;;;;;;5057219;28;20196;-82
2021/10/02 05:23:03;;;;;;;9.40;8.07;;;12.70;99.90;;;;;;5056995;28;20231;-83
2021/10/02 05:25:29;;;;;;;10.10;9.17;;;12.70;99.90;;;;;;5040396;28;20197;-82
2021/10/02 05:27:55;;;;;;;9.70;8.80;;;12.70;99.90;;;;;;5058178;28;20241;-83
2021/10/02 05:30:21;;;;;;;9.50;8.63;;;12.80;99.90;;;;;;5057866;28;20197;-83
2021/10/02 05:32:46;;;;;;;9.50;8.60;;;12.80;99.90;;;;;;5056932;28;20648;-83
2021/10/02 05:35:12;;;;;;;8.77;7.93;;;12.80;99.90;;;;;;5042165;28;20197;-84
2021/10/02 05:37:37;;;;;;;9.23;8.33;;;12.80;99.90;;;;;;5055850;28;20672;-83
2021/10/02 05:40:03;;;;;;;9.10;8.27;;;12.80;99.90;;;;;;5040357;28;20660;-82
2021/10/02 05:42:29;;;;;;;9.87;8.27;;;12.80;99.90;;;;;;5039673;28;20427;-84
2021/10/02 05:44:54;;;;;;;9.40;8.40;;;12.80;99.90;;;;;;5056013;28;20214;-83
2021/10/02 05:47:20;;;;;;;9.83;8.90;;;12.80;99.90;;;;;;5056866;28;20649;-84
2021/10/02 05:49:45;;;;;;;9.30;8.20;;;12.90;99.90;;;;;;5055199;28;20290;-83
2021/10/02 05:52:12;;;;;;;8.70;7.90;;;12.90;99.90;;;;;;5035124;28;20178;-82
2021/10/02 05:54:38;;;;;;;8.77;7.87;;;12.90;99.90;;;;;;5019380;28;20684;-83
2021/10/02 05:57:03;;;;;;;9.33;8.37;;;12.90;99.90;;;;;;5020431;28;20178;-82
2021/10/02 05:59:29;;;;;;;9.57;8.40;;;12.90;99.90;;;;;;5019190;28;20185;-83
2021/10/02 06:01:55;;;;;;;9.30;8.30;;;12.90;99.90;;;;;;5026019;28;20256;-83
2021/10/02 06:04:20;;;;;;;9.43;8.53;;;12.90;99.90;;;;;;5036949;28;20559;-82
2021/10/02 06:06:46;;;;;;;9.70;8.80;;;13.00;99.90;;;;;;5048823;28;20226;-84
2021/10/02 06:09:11;;;;;;;9.43;8.53;;;13.00;99.90;;;;;;5056458;28;20244;-84
2021/10/02 06:11:37;;;;;;;10.27;9.17;;;13.00;99.90;;;;;;5065765;28;20204;-83
2021/10/02 06:14:02;;;;;;;9.83;8.83;;;13.00;99.90;;;;;;5047607;28;20189;-83
2021/10/02 06:16:28;;;;;;;11.70;9.47;;;13.00;99.90;;;;;;5058255;28;20202;-82
2021/10/02 06:18:54;;;;;;;10.07;8.80;;;13.10;99.90;;;;;;5066747;28;20181;-84
2021/10/02 06:21:19;;;;;;;11.37;10.20;;;13.10;99.90;;;;;;5058311;28;20211;-84
2021/10/02 06:23:45;;;;;;;10.67;9.67;;;13.10;99.90;;;;;;5075119;28;20177;-83
2021/10/02 06:26:10;;;;;;;11.63;9.03;;;13.10;99.90;;;;;;5060416;28;20275;-83
2021/10/02 06:28:36;;;;;;;10.53;8.73;;;13.10;99.90;;;;;;5053435;28;20173;-82
2021/10/02 06:31:02;;;;;;;9.10;8.03;;;13.10;99.90;;;;;;5058591;28;20174;-84
2021/10/02 06:33:27;;;;;;;11.20;8.40;;;13.20;99.90;;;;;;5034573;28;20174;-84
2021/10/02 06:35:53;;;;;;;9.33;8.33;;;13.20;99.90;;;;;;5034163;28;20262;-83
2021/10/02 06:38:19;;;;;;;9.33;8.43;;;13.10;99.90;;;;;;5037933;28;20224;-82
2021/10/02 06:40:44;;;;;;;9.60;8.60;;;13.20;99.90;;;;;;5038570;28;20174;-84
2021/10/02 06:43:10;;;;;;;8.83;7.93;;;13.20;99.90;;;;;;5038730;28;20263;-84
2021/10/02 06:45:36;;;;;;;11.27;8.80;;;13.10;99.90;;;;;;5038836;28;20202;-84
2021/10/02 06:48:02;;;;;;;9.00;7.83;;;13.10;99.90;;;;;;5038617;28;20645;-84
2021/10/02 06:50:28;;;;;;;9.47;7.97;;;13.10;99.90;;;;;;5038684;28;20186;-85
2021/10/02 06:52:55;;;;;;;10.03;8.00;;;13.10;99.90;;;;;;5038720;28;20579;-84
2021/10/02 06:55:21;;;;;;;9.00;8.20;;;13.20;99.90;;;;;;5038226;28;20198;-84
2021/10/02 06:57:46;;;;;;;8.20;7.40;;;13.20;99.90;;;;;;5038150;28;20186;-84
2021/10/02 07:00:12;;;;;;;9.40;7.93;;;13.20;99.90;;;;;;5038156;28;20269;-84
2021/10/02 07:02:41;;;;;;;8.73;7.83;;;13.30;99.90;;;;;;5037786;28;20206;-85
2021/10/02 07:05:08;;;;;;;9.63;8.53;;;13.30;99.90;;;;;;5040706;28;20202;-82
2021/10/02 07:07:34;;;;;;;8.30;7.50;;;13.40;99.90;;;;;;5045026;28;20189;-84
2021/10/02 07:09:59;;;;;;;7.30;6.60;;;13.50;99.90;;;;;;5021430;28;20182;-82
2021/10/02 07:12:25;;;;;;;9.40;7.30;;;13.60;99.90;;;;;;5053177;28;20181;-83
2021/10/02 07:14:50;;;;;;;9.63;6.87;;;13.60;99.90;;;;;;5066417;28;20291;-83
2021/10/02 07:17:16;;;;;;;9.20;6.73;;;13.60;99.90;;;;;;5060439;28;20185;-82
2021/10/02 07:19:41;;;;;;;9.43;6.70;;;13.70;99.90;;;;;;5042033;28;20556;-83
2021/10/02 07:22:07;;;;;;;8.63;6.70;;;13.70;99.90;;;;;;5060257;28;20208;-83
2021/10/02 07:24:33;;;;;;;6.37;5.73;;;13.70;99.90;;;;;;5041093;28;20264;-83
2021/10/02 07:26:58;;;;;;;7.50;6.53;;;13.70;99.90;;;;;;5040008;28;20174;-84
2021/10/02 07:29:24;;;;;;;6.53;5.83;;;13.70;99.90;;;;;;5065947;28;20177;-83
2021/10/02 07:31:50;;;;;;;7.77;5.60;;;13.70;99.90;;;;;;5063748;28;20300;-84
2021/10/02 07:34:15;;;;;;;8.37;6.03;;;13.70;99.90;;;;;;5053989;28;20177;-83
2021/10/02 07:36:41;;;;;;;6.00;5.50;;;13.80;99.90;;;;;;5053276;28;20179;-84
2021/10/02 07:39:07;;;;;;;6.77;5.20;;;13.70;99.90;;;;;;5059917;28;20260;-84
2021/10/02 07:41:36;;;;;;;7.63;6.27;;;13.70;99.90;;;;;;5078122;28;20240;-84
2021/10/02 07:44:03;;;;;;;6.30;5.63;;;13.80;99.90;;;;;;5078728;28;20597;-83
2021/10/02 07:46:29;;;;;;;7.80;5.60;;;13.90;99.90;;;;;;5077952;28;20197;-82
2021/10/02 07:48:55;;;;;;;6.93;5.93;;;13.90;99.90;;;;;;5079309;28;20173;-84
2021/10/02 07:51:21;;;;;;;7.03;5.97;;;14.00;99.90;;;;;;5079333;28;20611;-83
2021/10/02 07:53:47;;;;;;;5.30;4.80;;;14.10;99.90;;;;;;5078571;28;20169;-83
2021/10/02 07:56:12;;;;;;;6.63;5.10;;;14.10;99.90;;;;;;5078541;28;20196;-82
2021/10/02 07:58:38;;;;;;;5.13;4.63;;;14.20;99.90;;;;;;5078637;28;20261;-82
2021/10/02 08:01:03;;;;;;;5.00;4.50;;;14.20;99.90;;;;;;5077494;28;20222;-84
2021/10/02 08:03:29;;;;;;;5.23;4.53;;;14.20;99.90;;;;;;5076894;28;20658;-83
2021/10/02 08:05:55;;;;;;;6.00;4.43;;;14.30;99.90;;;;;;5078549;28;20214;-83
2021/10/02 08:08:20;;;;;;;5.13;4.40;;;14.30;99.90;;;;;;5072301;28;20227;-83
2021/10/02 08:10:47;;;;;;;4.67;4.27;;;14.30;99.90;;;;;;5059353;28;20173;-83
2021/10/02 08:13:13;;;;;;;4.83;4.33;;;14.30;99.90;;;;;;5066726;28;20581;-84
2021/10/02 08:15:53;;;;;;;5.10;4.07;;;14.40;99.90;;;;;;5057367;28;20199;-83
2021/10/02 08:18:19;;;;;;;6.87;4.10;;;14.30;99.90;;;;;;5058687;28;20177;-85
2021/10/02 08:20:45;;;;;;;4.57;3.70;;;14.30;99.90;;;;;;5037726;28;20178;-84
2021/10/02 08:23:32;;;;;;;4.77;4.03;;;14.30;99.90;;;;;;5036888;28;20258;-84
2021/10/02 08:25:57;;;;;;;6.67;3.60;;;14.30;99.90;;;;;;5055984;28;20209;-89
2021/10/02 08:28:23;;;;;;;5.00;4.00;;;14.30;99.90;;;;;;5037394;28;20324;-84
2021/10/02 08:30:50;;;;;;;4.90;3.80;;;14.40;99.90;;;;;;5037698;28;20170;-86
2021/10/02 08:33:16;;;;;;;5.27;3.20;;;14.40;99.90;;;;;;5037676;28;20181;-84
2021/10/02 08:35:42;;;;;;;3.73;3.40;;;14.40;99.90;;;;;;5037394;28;20194;-84
2021/10/02 08:38:07;;;;;;;4.83;3.67;;;14.40;99.90;;;;;;5057823;28;20177;-83
2021/10/02 08:40:33;;;;;;;3.97;3.43;;;14.60;99.90;;;;;;5077477;28;20230;-86
2021/10/02 08:42:59;;;;;;;3.70;3.20;;;14.50;99.90;;;;;;5076420;28;20204;-84
2021/10/02 08:45:30;;;;;;;6.07;3.10;;;14.50;99.90;;;;;;5077312;28;20188;-81
2021/10/02 08:47:56;;;;;;;3.17;2.83;;;14.50;99.90;;;;;;5078938;28;20176;-80
2021/10/02 08:50:21;;;;;;;2.83;2.23;;;14.70;99.90;;;;;;5077929;28;20181;-84
2021/10/02 08:52:47;;;;;;;2.93;2.50;;;14.70;99.90;;;;;;5061588;28;20227;-83
2021/10/02 08:55:13;;;;;;;3.57;2.17;;;14.80;99.90;;;;;;5036938;28;20222;-83
2021/10/02 08:57:39;;;;;;;3.23;1.97;;;14.80;99.90;;;;;;5036836;28;20202;-83
2021/10/02 09:00:07;;;;;;;3.03;2.13;;;14.90;99.90;;;;;;5035901;28;20622;-84
2021/10/02 09:02:32;;;;;;;3.00;1.90;;;14.90;99.90;;;;;;5038838;28;20206;-84
2021/10/02 09:04:58;;;;;;;2.40;2.20;;;15.00;99.90;;;;;;5037366;28;20213;-83
2021/10/02 09:07:24;;;;;;;2.67;1.80;;;15.00;99.90;;;;;;5038135;28;20182;-84
2021/10/02 09:09:50;;;;;;;2.53;1.57;;;15.00;99.90;;;;;;5054778;28;20213;-84
2021/10/02 09:12:20;;;;;;;2.20;1.90;;;15.00;99.90;;;;;;5039226;28;20236;-83
2021/10/02 09:14:46;;;;;;;3.57;1.77;;;15.10;99.90;;;;;;5040504;28;20202;-84
2021/10/02 09:17:12;;;;;;;3.83;2.30;;;15.10;99.90;;;;;;5048959;28;20180;-81
2021/10/02 09:19:38;;;;;;;2.50;1.80;;;15.20;99.90;;;;;;5062947;28;20182;-81
2021/10/02 09:22:06;;;;;;;2.03;1.70;;;15.20;99.90;;;;;;5038733;28;20259;-82
2021/10/02 09:24:33;;;;;;;2.57;1.80;;;15.30;99.90;;;;;;5038340;28;20182;-86
2021/10/02 09:26:59;;;;;;;2.97;1.77;;;15.40;99.90;;;;;;5038143;28;20205;-83
2021/10/02 09:29:42;;;;;;;2.93;1.83;;;15.50;99.90;;;;;;5038518;28;20529;-84
2021/10/02 09:32:10;;;;;;;2.90;1.60;;;15.50;99.90;;;;;;5041571;28;20368;-83
2021/10/02 09:34:50;;;;;;;1.77;1.40;;;15.50;99.90;;;;;;5053629;28;20207;-83
2021/10/02 09:37:16;;;;;;;3.07;1.50;;;15.60;99.90;;;;;;5080652;28;20176;-83
2021/10/02 09:39:42;;;;;;;1.60;1.50;;;15.60;99.90;;;;;;5080214;28;20185;-83
2021/10/02 09:42:19;;;;;;;2.60;1.40;;;15.60;99.90;;;;;;5048826;28;20232;-85
2021/10/02 09:44:44;;;;;;;2.37;1.40;;;15.60;99.90;;;;;;5041572;28;20211;-83
2021/10/02 09:47:14;;;;;;;2.13;1.43;;;15.50;99.90;;;;;;5042115;28;20185;-82
2021/10/02 09:49:46;;;;;;;2.00;1.40;;;15.50;99.90;;;;;;5043727;28;20239;-82
2021/10/02 09:52:32;;;;;;;1.30;1.10;;;15.50;99.90;;;;;;5043634;28;20223;-82
2021/10/02 09:54:59;;;;;;;1.40;1.13;;;15.60;99.90;;;;;;5043992;28;20197;-84
2021/10/02 09:57:24;;;;;;;2.90;1.50;;;15.50;99.90;;;;;;5043797;28;20234;-83
2021/10/02 09:59:50;;;;;;;2.60;1.50;;;15.60;99.90;;;;;;5045307;28;20644;-83
2021/10/02 10:02:20;;;;;;;4.30;1.47;;;15.60;99.90;;;;;;5048517;28;20208;-79
2021/10/02 10:04:53;;;;;;;2.30;1.10;;;15.60;99.90;;;;;;5047460;28;20576;-82
2021/10/02 10:07:18;;;;;;;2.90;1.47;;;15.70;99.90;;;;;;5047912;28;20180;-82
2021/10/02 10:10:07;;;;;;;1.73;1.50;;;15.80;99.90;;;;;;5045954;28;20182;-82
2021/10/02 10:12:33;;;;;;;2.30;1.40;;;15.90;99.90;;;;;;5072233;28;20180;-83
2021/10/02 10:15:00;;;;;;;2.13;1.40;;;15.90;99.90;;;;;;5045128;28;20244;-83
2021/10/02 10:17:29;;;;;;;2.30;1.40;;;16.00;99.90;;;;;;5062470;28;20275;-84
2021/10/02 10:20:00;;;;;;;2.00;1.40;;;16.00;99.90;;;;;;5077038;28;20179;-82
2021/10/02 10:22:25;;;;;;;2.50;1.10;;;15.90;99.90;;;;;;5065663;28;20243;-83
2021/10/02 10:24:56;;;;;;;2.13;1.30;;;15.90;99.90;;;;;;5053528;28;20201;-86
2021/10/02 10:27:41;;;;;;;3.13;1.70;;;15.80;99.90;;;;;;5053339;28;20192;-84
2021/10/02 10:30:23;;;;;;;4.33;1.60;;;15.80;99.90;;;;;;5046985;28;20257;-85
2021/10/02 10:33:08;;;;;;;2.73;1.40;;;15.80;99.90;;;;;;5048640;28;20323;-83
2021/10/02 10:35:40;;;;;;;3.17;1.50;;;15.80;99.90;;;;;;5099076;28;20260;-82
2021/10/02 10:38:11;;;;;;;2.83;1.60;;;15.80;99.90;;;;;;5082435;28;20200;-82
2021/10/02 10:40:37;;;;;;;1.60;1.47;;;15.80;99.90;;;;;;5082273;28;20188;-82
2021/10/02 10:43:02;;;;;;;3.73;1.60;;;15.80;99.90;;;;;;5079937;28;20200;-80
2021/10/02 10:45:28;;;;;;;2.67;1.63;;;15.90;99.90;;;;;;5079644;28;20200;-83
2021/10/02 10:47:56;;;;;;;2.03;1.70;;;15.90;99.90;;;;;;5080275;28;20165;-80
2021/10/02 10:50:21;;;;;;;3.37;1.70;;;16.00;99.90;;;;;;5065120;28;20202;-81
2021/10/02 10:52:47;;;;;;;2.33;1.77;;;16.00;99.90;;;;;;5025293;28;20205;-80
2021/10/02 10:55:15;;;;;;;3.23;2.00;;;16.00;99.90;;;;;;5030338;28;20189;-80
2021/10/02 10:57:45;;;;;;;2.80;1.90;;;16.00;99.90;;;;;;5047271;28;20197;-81
2021/10/02 11:00:12;;;;;;;2.30;1.50;;;16.10;99.90;;;;;;5060739;28;20173;-81
2021/10/02 11:02:54;;;;;;;3.30;1.70;;;16.10;99.90;;;;;;5078271;28;20198;-79
2021/10/02 11:05:35;;;;;;;2.97;1.40;;;16.10;99.90;;;;;;5047632;28;20278;-80
2021/10/02 11:08:08;;;;;;;3.00;1.37;;;16.20;99.90;;;;;;5081531;28;20217;-81
2021/10/02 11:10:43;;;;;;;2.27;1.47;;;16.30;99.90;;;;;;5062233;28;20216;-81
2021/10/02 11:13:27;;;;;;;1.60;1.10;;;16.30;99.90;;;;;;5077793;28;20204;-81
2021/10/02 11:15:53;;;;;;;1.63;1.23;;;16.40;99.90;;;;;;5080101;28;20201;-81
2021/10/02 11:18:45;;;;;;;1.23;1.10;;;16.40;99.90;;;;;;5046252;28;20185;-81
2021/10/02 11:21:12;;;;;;;2.13;1.10;;;16.40;99.90;;;;;;5078646;28;20182;-81
2021/10/02 11:23:59;;;;;;;2.73;1.20;;;16.40;99.90;;;;;;5044624;28;20186;-81
2021/10/02 11:26:32;;;;;;;1.73;1.10;;;16.40;99.90;;;;;;5077873;28;20203;-81
2021/10/02 11:28:58;;;;;;;2.23;1.20;;;16.30;99.90;;;;;;5081652;28;20243;-81
2021/10/02 11:31:24;;;;;;;1.63;1.03;;;16.30;99.90;;;;;;5097027;28;20470;-81
2021/10/02 11:33:50;;;;;;;2.10;1.13;;;16.30;99.90;;;;;;5080362;28;20661;-81
2021/10/02 11:36:27;;;;;;;1.40;0.97;;;16.20;99.90;;;;;;5080281;28;20222;-81
2021/10/02 11:39:12;;;;;;;1.40;1.20;;;16.20;99.90;;;;;;5098442;28;20256;-81
2021/10/02 11:41:48;;;;;;;2.67;1.07;;;16.30;99.90;;;;;;5097142;28;20204;-80
2021/10/02 11:44:20;;;;;;;1.23;1.10;;;16.40;99.90;;;;;;5081883;28;20175;-81
2021/10/02 11:46:46;;;;;;;1.57;1.00;;;16.40;99.90;;;;;;5082104;28;20600;-81
2021/10/02 11:49:16;;;;;;;2.70;1.20;;;16.50;99.90;;;;;;5080694;28;20169;-81
2021/10/02 11:51:43;;;;;;;1.97;0.93;;;16.50;99.90;;;;;;5080250;28;20180;-81
2021/10/02 11:54:08;;;;;;;1.00;0.90;;;16.50;99.90;;;;;;5081018;28;20165;-81
2021/10/02 11:56:35;;;;;;;2.00;1.00;;;16.50;99.90;;;;;;5099633;28;20690;-81
2021/10/02 11:59:01;;;;;;;2.70;1.27;;;16.50;99.90;;;;;;5081145;28;20551;-81
2021/10/02 12:01:29;;;;;;;1.50;1.00;;;16.50;99.90;;;;;;5081269;28;20169;-80
2021/10/02 12:04:14;;;;;;;1.73;1.27;;;16.50;99.90;;;;;;5081500;28;20605;-80
2021/10/02 12:06:42;;;;;;;2.23;1.10;;;16.60;99.90;;;;;;5080756;28;20246;-81
2021/10/02 12:09:12;;;;;;;1.67;0.90;;;16.60;99.90;;;;;;5080547;28;20246;-81
2021/10/02 12:11:48;;;;;;;2.27;1.10;;;16.60;99.90;;;;;;5080988;28;20185;-81
2021/10/02 12:14:18;;;;;;;1.63;1.10;;;16.70;99.90;;;;;;5080178;28;20177;-81
2021/10/02 12:16:48;;;;;;;1.97;0.97;;;16.70;99.90;;;;;;5081841;28;20721;-81
2021/10/02 12:19:20;;;;;;;2.23;1.10;;;16.60;99.90;;;;;;5081115;28;20210;-80
2021/10/02 12:21:46;;;;;;;1.10;0.90;;;16.60;99.90;;;;;;5081850;28;20236;-80
2021/10/02 12:24:23;;;;;;;1.40;1.10;;;16.60;99.90;;;;;;5080862;28;20221;-80
2021/10/02 12:26:54;;;;;;;1.50;0.90;;;16.60;99.90;;;;;;5081087;28;20172;-81
2021/10/02 12:29:22;;;;;;;0.73;0.73;;;16.70;99.90;;;;;;5097653;28;20180;-80
2021/10/02 12:31:53;;;;;;;1.33;1.00;;;16.70;99.90;;;;;;5080974;28;20177;-81
2021/10/02 12:34:20;;;;;;;2.83;1.10;;;16.70;99.90;;;;;;5096264;28;20271;-81
2021/10/02 12:36:49;;;;;;;1.17;0.97;;;16.70;99.90;;;;;;5098165;28;20184;-81
2021/10/02 12:39:16;;;;;;;2.03;1.00;;;16.70;99.90;;;;;;5080319;28;20643;-81
2021/10/02 12:41:42;;;;;;;3.03;1.30;;;16.60;99.90;;;;;;5096479;28;20205;-82
2021/10/02 12:44:22;;;;;;;1.80;1.20;;;16.50;99.90;;;;;;5079176;28;20182;-81
2021/10/02 12:46:48;;;;;;;1.80;1.20;;;16.40;99.90;;;;;;5079002;28;20577;-81
2021/10/02 12:49:14;;;;;;;3.07;1.30;;;16.30;99.90;;;;;;5078363;28;20181;-82
2021/10/02 12:51:40;;;;;;;1.77;1.30;;;16.30;99.90;;;;;;5079336;28;20607;-82
2021/10/02 12:54:07;;;;;;;1.80;1.20;;;16.40;99.90;;;;;;5079010;28;20632;-82
2021/10/02 12:56:33;;;;;;;2.43;1.63;;;16.30;99.90;;;;;;5078092;28;20208;-81
2021/10/02 12:59:13;;;;;;;2.17;1.70;;;16.40;99.90;;;;;;5077694;28;20181;-82
2021/10/02 13:02:05;;;;;;;2.43;1.80;;;16.30;99.90;;;;;;5077103;28;20291;-82
2021/10/02 13:04:32;;;;;;;3.80;1.87;;;16.40;99.90;;;;;;5072580;28;20207;-82
2021/10/02 13:06:58;;;;;;;3.33;1.73;;;16.40;99.90;;;;;;5077219;28;20655;-82
2021/10/02 13:09:23;;;;;;;2.33;1.63;;;16.30;99.90;;;;;;5077717;28;20177;-82
2021/10/02 13:11:49;;;;;;;3.10;1.43;;;16.30;99.90;;;;;;5077866;28;20181;-81
2021/10/02 13:14:36;;;;;;;3.07;1.43;;;16.30;99.90;;;;;;5077155;28;20187;-82
2021/10/02 13:17:09;;;;;;;1.70;1.40;;;16.30;99.90;;;;;;5079287;28;20216;-80
2021/10/02 13:19:35;;;;;;;2.67;1.43;;;16.30;99.90;;;;;;5080859;28;20185;-80
2021/10/02 13:22:11;;;;;;;1.93;1.23;;;16.40;99.90;;;;;;5078812;28;20624;-82
2021/10/02 13:24:37;;;;;;;1.83;1.30;;;16.40;99.90;;;;;;5078855;28;20198;-81
2021/10/02 13:27:10;;;;;;;2.10;1.20;;;16.50;99.90;;;;;;5078746;28;20181;-82
2021/10/02 13:29:35;;;;;;;2.33;1.10;;;16.50;99.90;;;;;;5077677;28;20727;-81
2021/10/02 13:32:16;;;;;;;3.27;1.50;;;16.50;99.90;;;;;;5078993;28;20177;-81
2021/10/02 13:34:52;;;;;;;3.10;1.10;;;16.40;99.90;;;;;;5079465;28;20208;-81
2021/10/02 13:37:26;;;;;;;2.07;1.23;;;16.40;99.90;;;;;;5079494;28;20168;-80
2021/10/02 13:39:52;;;;;;;1.90;1.40;;;16.50;99.90;;;;;;5078096;28;20176;-81
2021/10/02 13:42:21;;;;;;;2.40;1.20;;;16.50;99.90;;;;;;5079222;28;20193;-81
2021/10/02 13:44:56;;;;;;;2.60;1.10;;;16.60;99.90;;;;;;5079180;28;20211;-81
2021/10/02 13:47:22;;;;;;;3.13;1.10;;;16.60;99.90;;;;;;5078606;28;20180;-81
2021/10/02 13:49:48;;;;;;;2.57;1.10;;;16.60;99.90;;;;;;5081791;28;20169;-81